sensor_id;sensor_type;location;lat;lon;timestamp;temperature;humidity
50162;DHT22;36061;48.116;11.612;2024-03-23T00:53:48;10.50;99.90
50162;DHT22;36061;48.116;11.612;2024-03-23T00:56:16;10.50;99.90
50162;DHT22;36061;48.116;11.612;2024-03-23T00:58:42;10.50;99.90
50162;DHT22;36061;48.116;11.612;2024-03-23T01:01:10;10.40;99.90
50162;DHT22;36061;48.116;11.612;2024-03-23T01:03:37;10.40;99.90
50162;DHT22;36061;48.116;11.612;2024-03-23T01:06:05;10.40;99.90
50162;DHT22;36061;48.116;11.612;2024-03-23T01:08:32;10.40;99.90
50162;DHT22;36061;48.116;11.612;2024-03-23T01:11:01;10.30;99.90
50162;DHT22;36061;48.116;11.612;2024-03-23T01:13:28;10.30;99.90
50162;DHT22;36061;48.116;11.612;2024-03-23T01:15:56;10.30;99.90
50162;DHT22;36061;48.116;11.612;2024-03-23T01:18:24;10.30;99.90
50162;DHT22;36061;48.116;11.612;2024-03-23T01:20:52;10.20;99.90
50162;DHT22;36061;48.116;11.612;2024-03-23T01:23:19;10.10;99.90
50162;DHT22;36061;48.116;11.612;2024-03-23T01:25:52;10.10;99.90
50162;DHT22;36061;48.116;11.612;2024-03-23T01:28:20;10.10;99.90
50162;DHT22;36061;48.116;11.612;2024-03-23T01:30:48;10.00;99.90
50162;DHT22;36061;48.116;11.612;2024-03-23T01:33:14;10.00;99.90
50162;DHT22;36061;48.116;11.612;2024-03-23T01:35:42;10.00;99.90
50162;DHT22;36061;48.116;11.612;2024-03-23T01:38:08;9.90;99.90
50162;DHT22;36061;48.116;11.612;2024-03-23T01:40:36;9.90;99.90
50162;DHT22;36061;48.116;11.612;2024-03-23T01:43:04;9.90;99.90
50162;DHT22;36061;48.116;11.612;2024-03-23T01:45:33;9.90;99.90
50162;DHT22;36061;48.116;11.612;2024-03-23T01:48:00;9.90;99.90
50162;DHT22;36061;48.116;11.612;2024-03-23T01:50:28;9.90;99.90
50162;DHT22;36061;48.116;11.612;2024-03-23T01:52:55;9.90;99.90
50162;DHT22;36061;48.116;11.612;2024-03-23T01:55:22;9.90;99.90
50162;DHT22;36061;48.116;11.612;2024-03-23T01:57:49;9.90;99.90
50162;DHT22;36061;48.116;11.612;2024-03-23T02:00:17;9.80;99.90
50162;DHT22;36061;48.116;11.612;2024-03-23T02:02:45;9.80;99.90
50162;DHT22;36061;48.116;11.612;2024-03-23T02:05:13;9.70;99.90
50162;DHT22;36061;48.116;11.612;2024-03-23T02:07:41;9.70;99.90
50162;DHT22;36061;48.116;11.612;2024-03-23T02:10:10;9.70;99.90
50162;DHT22;36061;48.116;11.612;2024-03-23T02:12:37;9.70;99.90
50162;DHT22;36061;48.116;11.612;2024-03-23T02:15:05;9.70;99.90
50162;DHT22;36061;48.116;11.612;2024-03-23T02:17:34;9.70;99.90
50162;DHT22;36061;48.116;11.612;2024-03-23T02:20:04;9.60;99.90
50162;DHT22;36061;48.116;11.612;2024-03-23T02:22:36;9.60;99.90
50162;DHT22;36061;48.116;11.612;2024-03-23T02:25:06;9.60;99.90
50162;DHT22;36061;48.116;11.612;2024-03-23T02:27:33;9.50;99.90
50162;DHT22;36061;48.116;11.612;2024-03-23T02:30:02;9.50;99.90
50162;DHT22;36061;48.116;11.612;2024-03-23T02:32:30;9.50;99.90
50162;DHT22;36061;48.116;11.612;2024-03-23T02:34:57;9.50;99.90
50162;DHT22;36061;48.116;11.612;2024-03-23T02:37:24;9.40;99.90
50162;DHT22;36061;48.116;11.612;2024-03-23T02:39:52;9.40;99.90
50162;DHT22;36061;48.116;11.612;2024-03-23T02:42:20;9.40;99.90
50162;DHT22;36061;48.116;11.612;2024-03-23T02:44:47;9.40;99.90
50162;DHT22;36061;48.116;11.612;2024-03-23T02:47:14;9.40;99.90
50162;DHT22;36061;48.116;11.612;2024-03-23T02:49:41;9.40;99.90
50162;DHT22;36061;48.116;11.612;2024-03-23T02:52:08;9.40;99.90
50162;DHT22;36061;48.116;11.612;2024-03-23T02:54:35;9.40;99.90
50162;DHT22;36061;48.116;11.612;2024-03-23T02:57:02;9.40;99.90
50162;DHT22;36061;48.116;11.612;2024-03-23T02:59:31;9.40;99.90
50162;DHT22;36061;48.116;11.612;2024-03-23T03:01:58;9.50;99.90
50162;DHT22;36061;48.116;11.612;2024-03-23T03:04:27;9.50;99.90
50162;DHT22;36061;48.116;11.612;2024-03-23T03:06:53;9.50;99.90
50162;DHT22;36061;48.116;11.612;2024-03-23T03:09:21;9.60;99.90
50162;DHT22;36061;48.116;11.612;2024-03-23T03:11:47;9.60;99.90
50162;DHT22;36061;48.116;11.612;2024-03-23T03:14:15;9.60;99.90
50162;DHT22;36061;48.116;11.612;2024-03-23T03:16:43;9.60;99.90
50162;DHT22;36061;48.116;11.612;2024-03-23T03:19:10;9.70;99.90
50162;DHT22;36061;48.116;11.612;2024-03-23T03:21:37;9.70;99.90
50162;DHT22;36061;48.116;11.612;2024-03-23T03:24:06;9.80;99.90
50162;DHT22;36061;48.116;11.612;2024-03-23T03:26:33;9.80;99.90
50162;DHT22;36061;48.116;11.612;2024-03-23T03:29:01;9.80;99.90
50162;DHT22;36061;48.116;11.612;2024-03-23T03:31:28;9.80;99.90
50162;DHT22;36061;48.116;11.612;2024-03-23T03:33:57;9.80;99.90
50162;DHT22;36061;48.116;11.612;2024-03-23T03:36:26;9.90;99.90
50162;DHT22;36061;48.116;11.612;2024-03-23T03:38:54;9.90;99.90
50162;DHT22;36061;48.116;11.612;2024-03-23T03:41:20;9.90;99.90
50162;DHT22;36061;48.116;11.612;2024-03-23T03:43:48;9.80;99.90
50162;DHT22;36061;48.116;11.612;2024-03-23T03:46:14;9.80;99.90
50162;DHT22;36061;48.116;11.612;2024-03-23T03:48:42;9.80;99.90
50162;DHT22;36061;48.116;11.612;2024-03-23T03:51:12;9.80;99.90
50162;DHT22;36061;48.116;11.612;2024-03-23T03:53:39;9.70;99.90
50162;DHT22;36061;48.116;11.612;2024-03-23T03:56:06;9.70;99.90
50162;DHT22;36061;48.116;11.612;2024-03-23T03:58:34;9.70;99.90
50162;DHT22;36061;48.116;11.612;2024-03-23T04:01:01;9.60;99.90
50162;DHT22;36061;48.116;11.612;2024-03-23T04:03:28;9.60;99.90
50162;DHT22;36061;48.116;11.612;2024-03-23T04:05:56;9.60;99.90
50162;DHT22;36061;48.116;11.612;2024-03-23T04:08:24;9.60;99.90
50162;DHT22;36061;48.116;11.612;2024-03-23T04:10:51;9.60;99.90
50162;DHT22;36061;48.116;11.612;2024-03-23T04:13:18;9.60;99.90
50162;DHT22;36061;48.116;11.612;2024-03-23T04:15:45;9.70;99.90
50162;DHT22;36061;48.116;11.612;2024-03-23T04:18:12;9.80;99.90
50162;DHT22;36061;48.116;11.612;2024-03-23T04:20:40;9.80;99.90
50162;DHT22;36061;48.116;11.612;2024-03-23T04:23:06;9.80;99.90
50162;DHT22;36061;48.116;11.612;2024-03-23T04:25:35;9.90;99.90
50162;DHT22;36061;48.116;11.612;2024-03-23T04:28:02;10.00;99.90
50162;DHT22;36061;48.116;11.612;2024-03-23T04:30:30;10.00;99.90
50162;DHT22;36061;48.116;11.612;2024-03-23T04:32:58;10.10;99.90
50162;DHT22;36061;48.116;11.612;2024-03-23T04:35:25;10.10;99.90
50162;DHT22;36061;48.116;11.612;2024-03-23T04:37:52;10.10;99.90
50162;DHT22;36061;48.116;11.612;2024-03-23T04:40:21;10.10;99.90
50162;DHT22;36061;48.116;11.612;2024-03-23T04:42:50;10.10;99.90
50162;DHT22;36061;48.116;11.612;2024-03-23T04:45:18;10.10;99.90
50162;DHT22;36061;48.116;11.612;2024-03-23T04:47:46;10.00;99.90
50162;DHT22;36061;48.116;11.612;2024-03-23T04:50:13;10.00;99.90
50162;DHT22;36061;48.116;11.612;2024-03-23T04:52:41;9.90;99.90
50162;DHT22;36061;48.116;11.612;2024-03-23T04:55:09;9.90;99.90
50162;DHT22;36061;48.116;11.612;2024-03-23T04:57:38;9.90;99.90
50162;DHT22;36061;48.116;11.612;2024-03-23T05:00:07;9.80;99.90
50162;DHT22;36061;48.116;11.612;2024-03-23T05:02:44;9.80;99.90
50162;DHT22;36061;48.116;11.612;2024-03-23T05:05:11;9.70;99.90
50162;DHT22;36061;48.116;11.612;2024-03-23T05:07:40;9.60;99.90
50162;DHT22;36061;48.116;11.612;2024-03-23T05:10:09;9.60;99.90
50162;DHT22;36061;48.116;11.612;2024-03-23T05:12:37;9.60;99.90
50162;DHT22;36061;48.116;11.612;2024-03-23T05:15:06;9.60;99.90
50162;DHT22;36061;48.116;11.612;2024-03-23T05:17:33;9.50;99.90
50162;DHT22;36061;48.116;11.612;2024-03-23T05:20:00;9.50;99.90
50162;DHT22;36061;48.116;11.612;2024-03-23T05:22:28;9.40;99.90
50162;DHT22;36061;48.116;11.612;2024-03-23T05:24:55;9.40;99.90
50162;DHT22;36061;48.116;11.612;2024-03-23T05:27:22;9.40;99.90
50162;DHT22;36061;48.116;11.612;2024-03-23T05:29:49;9.50;99.90
50162;DHT22;36061;48.116;11.612;2024-03-23T05:32:18;9.50;99.90
50162;DHT22;36061;48.116;11.612;2024-03-23T05:34:44;9.50;99.90
50162;DHT22;36061;48.116;11.612;2024-03-23T05:37:12;9.50;99.90
50162;DHT22;36061;48.116;11.612;2024-03-23T05:39:39;9.50;99.90
50162;DHT22;36061;48.116;11.612;2024-03-23T05:42:06;9.60;99.90
50162;DHT22;36061;48.116;11.612;2024-03-23T05:44:34;9.60;99.90
50162;DHT22;36061;48.116;11.612;2024-03-23T05:47:01;9.60;99.90
50162;DHT22;36061;48.116;11.612;2024-03-23T05:49:29;9.70;99.90
50162;DHT22;36061;48.116;11.612;2024-03-23T05:51:57;9.70;99.90
50162;DHT22;36061;48.116;11.612;2024-03-23T05:54:23;9.80;99.90
50162;DHT22;36061;48.116;11.612;2024-03-23T05:56:54;9.80;99.90
50162;DHT22;36061;48.116;11.612;2024-03-23T05:59:21;9.90;99.90
50162;DHT22;36061;48.116;11.612;2024-03-23T06:01:48;9.90;99.90
50162;DHT22;36061;48.116;11.612;2024-03-23T06:04:15;9.90;99.90
50162;DHT22;36061;48.116;11.612;2024-03-23T06:06:44;10.00;99.90
50162;DHT22;36061;48.116;11.612;2024-03-23T06:09:11;10.00;99.90
50162;DHT22;36061;48.116;11.612;2024-03-23T06:11:38;10.10;99.90
50162;DHT22;36061;48.116;11.612;2024-03-23T06:14:05;10.10;99.90
50162;DHT22;36061;48.116;11.612;2024-03-23T06:16:32;10.20;99.90
50162;DHT22;36061;48.116;11.612;2024-03-23T06:18:59;10.30;99.90
50162;DHT22;36061;48.116;11.612;2024-03-23T06:21:26;10.40;99.90
50162;DHT22;36061;48.116;11.612;2024-03-23T06:23:55;10.70;99.90
50162;DHT22;36061;48.116;11.612;2024-03-23T06:26:22;11.30;99.90
50162;DHT22;36061;48.116;11.612;2024-03-23T06:28:49;12.00;99.90
50162;DHT22;36061;48.116;11.612;2024-03-23T06:31:16;12.80;99.90
50162;DHT22;36061;48.116;11.612;2024-03-23T06:33:44;13.40;99.90
50162;DHT22;36061;48.116;11.612;2024-03-23T06:36:11;13.90;99.90
50162;DHT22;36061;48.116;11.612;2024-03-23T06:38:38;14.30;99.90
50162;DHT22;36061;48.116;11.612;2024-03-23T06:41:07;14.60;99.90
50162;DHT22;36061;48.116;11.612;2024-03-23T06:43:34;14.90;99.90
50162;DHT22;36061;48.116;11.612;2024-03-23T06:46:02;15.10;99.90
50162;DHT22;36061;48.116;11.612;2024-03-23T06:48:30;15.20;99.90
50162;DHT22;36061;48.116;11.612;2024-03-23T06:50:57;15.10;99.90
50162;DHT22;36061;48.116;11.612;2024-03-23T06:53:24;14.80;99.90
50162;DHT22;36061;48.116;11.612;2024-03-23T06:55:52;14.50;99.90
50162;DHT22;36061;48.116;11.612;2024-03-23T06:58:21;14.30;99.90
50162;DHT22;36061;48.116;11.612;2024-03-23T07:00:49;14.30;99.90
50162;DHT22;36061;48.116;11.612;2024-03-23T07:03:16;14.40;99.90
50162;DHT22;36061;48.116;11.612;2024-03-23T07:05:43;14.60;99.90
50162;DHT22;36061;48.116;11.612;2024-03-23T07:08:12;14.80;99.90
50162;DHT22;36061;48.116;11.612;2024-03-23T07:10:44;15.00;99.90
50162;DHT22;36061;48.116;11.612;2024-03-23T07:13:11;15.30;99.90
50162;DHT22;36061;48.116;11.612;2024-03-23T07:15:40;15.50;99.90
50162;DHT22;36061;48.116;11.612;2024-03-23T07:18:07;15.50;99.90
50162;DHT22;36061;48.116;11.612;2024-03-23T07:20:34;15.40;99.90
50162;DHT22;36061;48.116;11.612;2024-03-23T07:23:01;15.00;99.90
50162;DHT22;36061;48.116;11.612;2024-03-23T07:25:28;14.70;99.90
50162;DHT22;36061;48.116;11.612;2024-03-23T07:27:55;14.50;99.90
50162;DHT22;36061;48.116;11.612;2024-03-23T07:30:22;14.30;99.90
50162;DHT22;36061;48.116;11.612;2024-03-23T07:32:50;14.10;99.90
50162;DHT22;36061;48.116;11.612;2024-03-23T07:35:18;14.10;99.90
50162;DHT22;36061;48.116;11.612;2024-03-23T07:37:44;14.00;99.90
50162;DHT22;36061;48.116;11.612;2024-03-23T07:40:13;14.00;99.90
50162;DHT22;36061;48.116;11.612;2024-03-23T07:42:40;14.00;99.90
50162;DHT22;36061;48.116;11.612;2024-03-23T07:45:08;14.10;99.90
50162;DHT22;36061;48.116;11.612;2024-03-23T07:47:35;14.00;99.90
50162;DHT22;36061;48.116;11.612;2024-03-23T07:50:05;14.00;99.90
50162;DHT22;36061;48.116;11.612;2024-03-23T07:52:32;13.90;99.90
50162;DHT22;36061;48.116;11.612;2024-03-23T07:54:59;13.90;99.90
50162;DHT22;36061;48.116;11.612;2024-03-23T07:57:26;13.70;99.90
50162;DHT22;36061;48.116;11.612;2024-03-23T07:59:53;13.40;99.90
50162;DHT22;36061;48.116;11.612;2024-03-23T08:02:20;13.00;99.90
50162;DHT22;36061;48.116;11.612;2024-03-23T08:04:47;12.80;99.90
50162;DHT22;36061;48.116;11.612;2024-03-23T08:07:16;12.50;99.90
50162;DHT22;36061;48.116;11.612;2024-03-23T08:09:44;12.20;99.90
50162;DHT22;36061;48.116;11.612;2024-03-23T08:12:10;12.00;99.90
50162;DHT22;36061;48.116;11.612;2024-03-23T08:14:38;11.80;99.90
50162;DHT22;36061;48.116;11.612;2024-03-23T08:17:04;11.50;99.90
50162;DHT22;36061;48.116;11.612;2024-03-23T08:19:32;11.30;99.90
50162;DHT22;36061;48.116;11.612;2024-03-23T08:21:58;11.10;99.90
50162;DHT22;36061;48.116;11.612;2024-03-23T08:24:27;11.00;99.90
50162;DHT22;36061;48.116;11.612;2024-03-23T08:26:54;10.80;99.90
50162;DHT22;36061;48.116;11.612;2024-03-23T08:29:22;10.70;99.90
50162;DHT22;36061;48.116;11.612;2024-03-23T08:31:48;10.60;99.90
50162;DHT22;36061;48.116;11.612;2024-03-23T08:34:16;10.50;99.90
50162;DHT22;36061;48.116;11.612;2024-03-23T08:36:42;10.40;99.90
50162;DHT22;36061;48.116;11.612;2024-03-23T08:39:10;10.40;99.90
50162;DHT22;36061;48.116;11.612;2024-03-23T08:41:38;10.40;99.90
50162;DHT22;36061;48.116;11.612;2024-03-23T08:44:06;10.30;99.90
50162;DHT22;36061;48.116;11.612;2024-03-23T08:46:32;10.20;99.90
50162;DHT22;36061;48.116;11.612;2024-03-23T08:49:00;10.00;99.90
50162;DHT22;36061;48.116;11.612;2024-03-23T08:51:27;9.80;99.90
50162;DHT22;36061;48.116;11.612;2024-03-23T08:53:55;9.70;99.90
50162;DHT22;36061;48.116;11.612;2024-03-23T08:56:21;9.60;99.90
50162;DHT22;36061;48.116;11.612;2024-03-23T08:58:50;9.60;99.90
50162;DHT22;36061;48.116;11.612;2024-03-23T09:01:17;9.60;99.90
50162;DHT22;36061;48.116;11.612;2024-03-23T09:03:45;9.50;99.90
50162;DHT22;36061;48.116;11.612;2024-03-23T09:06:12;9.40;99.90
50162;DHT22;36061;48.116;11.612;2024-03-23T09:08:40;9.40;99.90
50162;DHT22;36061;48.116;11.612;2024-03-23T09:11:09;9.30;99.90
50162;DHT22;36061;48.116;11.612;2024-03-23T09:13:37;9.30;99.90
50162;DHT22;36061;48.116;11.612;2024-03-23T09:16:06;9.30;99.90
50162;DHT22;36061;48.116;11.612;2024-03-23T09:18:36;9.40;99.90
50162;DHT22;36061;48.116;11.612;2024-03-23T09:21:03;9.40;99.90
50162;DHT22;36061;48.116;11.612;2024-03-23T09:23:31;9.40;99.90
50162;DHT22;36061;48.116;11.612;2024-03-23T09:25:57;9.60;99.90
50162;DHT22;36061;48.116;11.612;2024-03-23T09:28:29;9.70;99.90
50162;DHT22;36061;48.116;11.612;2024-03-23T09:31:02;9.80;99.90
50162;DHT22;36061;48.116;11.612;2024-03-23T09:33:32;9.60;99.90
50162;DHT22;36061;48.116;11.612;2024-03-23T09:36:03;9.70;99.90
50162;DHT22;36061;48.116;11.612;2024-03-23T09:38:30;9.70;99.90
50162;DHT22;36061;48.116;11.612;2024-03-23T09:40:57;9.60;99.90
50162;DHT22;36061;48.116;11.612;2024-03-23T09:43:25;9.60;99.90
50162;DHT22;36061;48.116;11.612;2024-03-23T09:45:52;9.50;99.90
50162;DHT22;36061;48.116;11.612;2024-03-23T09:48:20;9.40;99.90
50162;DHT22;36061;48.116;11.612;2024-03-23T09:50:48;9.30;99.90
50162;DHT22;36061;48.116;11.612;2024-03-23T09:53:16;9.20;99.90
50162;DHT22;36061;48.116;11.612;2024-03-23T09:55:44;9.00;99.90
50162;DHT22;36061;48.116;11.612;2024-03-23T09:58:13;9.00;99.90
50162;DHT22;36061;48.116;11.612;2024-03-23T10:00:40;8.90;99.90
50162;DHT22;36061;48.116;11.612;2024-03-23T10:03:07;8.80;99.90
50162;DHT22;36061;48.116;11.612;2024-03-23T10:05:34;8.80;99.90
50162;DHT22;36061;48.116;11.612;2024-03-23T10:08:17;8.70;99.90
50162;DHT22;36061;48.116;11.612;2024-03-23T10:10:45;8.60;99.90
50162;DHT22;36061;48.116;11.612;2024-03-23T10:13:24;8.50;99.90
50162;DHT22;36061;48.116;11.612;2024-03-23T10:15:55;8.40;99.90
50162;DHT22;36061;48.116;11.612;2024-03-23T10:18:24;8.30;99.90
50162;DHT22;36061;48.116;11.612;2024-03-23T10:20:52;8.10;99.90
50162;DHT22;36061;48.116;11.612;2024-03-23T10:23:35;8.10;99.90
50162;DHT22;36061;48.116;11.612;2024-03-23T10:26:13;8.10;99.90
50162;DHT22;36061;48.116;11.612;2024-03-23T10:28:55;8.10;99.90
50162;DHT22;36061;48.116;11.612;2024-03-23T10:31:24;8.10;99.90
50162;DHT22;36061;48.116;11.612;2024-03-23T10:33:51;8.20;99.90
50162;DHT22;36061;48.116;11.612;2024-03-23T10:36:21;8.20;99.90
50162;DHT22;36061;48.116;11.612;2024-03-23T10:38:51;8.20;99.90
50162;DHT22;36061;48.116;11.612;2024-03-23T10:41:18;8.20;99.90
50162;DHT22;36061;48.116;11.612;2024-03-23T10:43:48;8.30;99.90
50162;DHT22;36061;48.116;11.612;2024-03-23T10:46:15;8.20;99.90
50162;DHT22;36061;48.116;11.612;2024-03-23T10:48:43;8.20;99.90
50162;DHT22;36061;48.116;11.612;2024-03-23T10:51:10;8.20;99.90
50162;DHT22;36061;48.116;11.612;2024-03-23T10:53:38;8.20;99.90
50162;DHT22;36061;48.116;11.612;2024-03-23T10:56:07;8.10;99.90
50162;DHT22;36061;48.116;11.612;2024-03-23T10:58:39;7.90;99.90
50162;DHT22;36061;48.116;11.612;2024-03-23T11:01:06;7.70;99.90
50162;DHT22;36061;48.116;11.612;2024-03-23T11:03:44;7.60;99.90
50162;DHT22;36061;48.116;11.612;2024-03-23T11:06:11;7.60;99.90
50162;DHT22;36061;48.116;11.612;2024-03-23T11:08:58;7.70;99.90
50162;DHT22;36061;48.116;11.612;2024-03-23T11:11:26;7.70;99.90
50162;DHT22;36061;48.116;11.612;2024-03-23T11:13:55;7.80;99.90
50162;DHT22;36061;48.116;11.612;2024-03-23T11:16:25;7.80;99.90
50162;DHT22;36061;48.116;11.612;2024-03-23T11:19:33;7.90;99.90
50162;DHT22;36061;48.116;11.612;2024-03-23T11:22:00;7.90;99.90
50162;DHT22;36061;48.116;11.612;2024-03-23T11:24:27;8.00;99.90
50162;DHT22;36061;48.116;11.612;2024-03-23T11:26:55;8.00;99.90
50162;DHT22;36061;48.116;11.612;2024-03-23T11:29:26;8.00;99.90
50162;DHT22;36061;48.116;11.612;2024-03-23T11:31:53;8.10;99.90
50162;DHT22;36061;48.116;11.612;2024-03-23T11:34:21;8.10;99.90
50162;DHT22;36061;48.116;11.612;2024-03-23T11:36:48;8.20;99.90
50162;DHT22;36061;48.116;11.612;2024-03-23T11:39:17;8.20;99.90
50162;DHT22;36061;48.116;11.612;2024-03-23T11:41:48;8.30;99.90
50162;DHT22;36061;48.116;11.612;2024-03-23T11:44:18;8.40;99.90
50162;DHT22;36061;48.116;11.612;2024-03-23T11:46:45;8.40;99.90
50162;DHT22;36061;48.116;11.612;2024-03-23T11:49:22;8.50;99.90
50162;DHT22;36061;48.116;11.612;2024-03-23T11:51:50;8.50;99.90
50162;DHT22;36061;48.116;11.612;2024-03-23T11:54:21;8.40;99.90
50162;DHT22;36061;48.116;11.612;2024-03-23T11:56:57;8.40;99.90
50162;DHT22;36061;48.116;11.612;2024-03-23T11:59:34;8.40;99.90
50162;DHT22;36061;48.116;11.612;2024-03-23T12:02:04;8.50;99.90
50162;DHT22;36061;48.116;11.612;2024-03-23T12:04:33;8.60;99.90
50162;DHT22;36061;48.116;11.612;2024-03-23T12:07:15;8.70;99.90
50162;DHT22;36061;48.116;11.612;2024-03-23T12:09:45;8.80;99.90
50162;DHT22;36061;48.116;11.612;2024-03-23T12:12:14;8.80;99.90
50162;DHT22;36061;48.116;11.612;2024-03-23T12:14:44;8.80;99.90
50162;DHT22;36061;48.116;11.612;2024-03-23T12:17:12;8.80;99.90
50162;DHT22;36061;48.116;11.612;2024-03-23T12:19:40;8.70;99.90
50162;DHT22;36061;48.116;11.612;2024-03-23T12:22:07;8.60;99.90
50162;DHT22;36061;48.116;11.612;2024-03-23T12:24:35;8.50;99.90
50162;DHT22;36061;48.116;11.612;2024-03-23T12:27:03;8.50;99.90
50162;DHT22;36061;48.116;11.612;2024-03-23T12:29:31;8.50;99.90
50162;DHT22;36061;48.116;11.612;2024-03-23T12:32:01;8.40;99.90
50162;DHT22;36061;48.116;11.612;2024-03-23T12:34:30;8.30;99.90
50162;DHT22;36061;48.116;11.612;2024-03-23T12:36:57;8.30;99.90
50162;DHT22;36061;48.116;11.612;2024-03-23T12:39:25;8.30;99.90
50162;DHT22;36061;48.116;11.612;2024-03-23T12:41:52;8.30;99.90
50162;DHT22;36061;48.116;11.612;2024-03-23T12:44:19;8.40;99.90
50162;DHT22;36061;48.116;11.612;2024-03-23T12:46:47;8.50;99.90
50162;DHT22;36061;48.116;11.612;2024-03-23T12:49:16;8.60;99.90
50162;DHT22;36061;48.116;11.612;2024-03-23T12:51:48;8.70;99.90
50162;DHT22;36061;48.116;11.612;2024-03-23T12:54:20;8.90;99.90
50162;DHT22;36061;48.116;11.612;2024-03-23T12:56:46;8.90;99.90
50162;DHT22;36061;48.116;11.612;2024-03-23T12:59:14;8.90;99.90
50162;DHT22;36061;48.116;11.612;2024-03-23T13:01:41;8.90;99.90
50162;DHT22;36061;48.116;11.612;2024-03-23T13:04:09;8.90;99.90
50162;DHT22;36061;48.116;11.612;2024-03-23T13:06:37;9.00;99.90
50162;DHT22;36061;48.116;11.612;2024-03-23T13:09:05;9.10;99.90
50162;DHT22;36061;48.116;11.612;2024-03-23T13:11:32;9.20;99.90
50162;DHT22;36061;48.116;11.612;2024-03-23T13:13:59;9.40;99.90
50162;DHT22;36061;48.116;11.612;2024-03-23T13:16:26;9.50;99.90
50162;DHT22;36061;48.116;11.612;2024-03-23T13:18:53;9.50;99.90
50162;DHT22;36061;48.116;11.612;2024-03-23T13:21:20;9.50;99.90
50162;DHT22;36061;48.116;11.612;2024-03-23T13:23:49;9.50;99.90
50162;DHT22;36061;48.116;11.612;2024-03-23T13:26:17;9.40;99.90
50162;DHT22;36061;48.116;11.612;2024-03-23T13:28:44;9.30;99.90
50162;DHT22;36061;48.116;11.612;2024-03-23T13:31:11;9.20;99.90
50162;DHT22;36061;48.116;11.612;2024-03-23T13:33:38;9.10;99.90
50162;DHT22;36061;48.116;11.612;2024-03-23T13:36:06;9.00;99.90
50162;DHT22;36061;48.116;11.612;2024-03-23T13:38:34;9.00;99.90
50162;DHT22;36061;48.116;11.612;2024-03-23T13:41:02;9.00;99.90
50162;DHT22;36061;48.116;11.612;2024-03-23T13:43:30;9.10;99.90
50162;DHT22;36061;48.116;11.612;2024-03-23T13:45:58;9.10;99.90
50162;DHT22;36061;48.116;11.612;2024-03-23T13:48:27;9.10;99.90
50162;DHT22;36061;48.116;11.612;2024-03-23T13:50:58;9.10;99.90
50162;DHT22;36061;48.116;11.612;2024-03-23T13:53:25;9.10;99.90
50162;DHT22;36061;48.116;11.612;2024-03-23T13:55:53;9.00;99.90
50162;DHT22;36061;48.116;11.612;2024-03-23T13:58:22;9.00;99.90
50162;DHT22;36061;48.116;11.612;2024-03-23T14:00:51;9.00;99.90
50162;DHT22;36061;48.116;11.612;2024-03-23T14:03:19;8.90;99.90
50162;DHT22;36061;48.116;11.612;2024-03-23T14:05:46;8.80;99.90
50162;DHT22;36061;48.116;11.612;2024-03-23T14:08:14;8.60;99.90
50162;DHT22;36061;48.116;11.612;2024-03-23T14:10:41;8.30;99.90
50162;DHT22;36061;48.116;11.612;2024-03-23T14:13:09;7.90;99.90
50162;DHT22;36061;48.116;11.612;2024-03-23T14:15:37;7.60;99.90
50162;DHT22;36061;48.116;11.612;2024-03-23T14:18:05;7.30;99.90
50162;DHT22;36061;48.116;11.612;2024-03-23T14:20:32;7.00;99.90
50162;DHT22;36061;48.116;11.612;2024-03-23T14:22:59;6.90;99.90
50162;DHT22;36061;48.116;11.612;2024-03-23T14:25:26;6.90;99.90
50162;DHT22;36061;48.116;11.612;2024-03-23T14:27:55;6.80;99.90
50162;DHT22;36061;48.116;11.612;2024-03-23T14:30:21;6.80;99.90
50162;DHT22;36061;48.116;11.612;2024-03-23T14:32:50;6.90;99.90
50162;DHT22;36061;48.116;11.612;2024-03-23T14:35:17;6.90;99.90
50162;DHT22;36061;48.116;11.612;2024-03-23T14:37:45;7.00;99.90
50162;DHT22;36061;48.116;11.612;2024-03-23T14:40:13;7.00;99.90
50162;DHT22;36061;48.116;11.612;2024-03-23T14:42:40;7.00;99.90
50162;DHT22;36061;48.116;11.612;2024-03-23T14:45:08;7.10;99.90
50162;DHT22;36061;48.116;11.612;2024-03-23T14:47:37;7.10;99.90
50162;DHT22;36061;48.116;11.612;2024-03-23T14:50:06;7.20;99.90
50162;DHT22;36061;48.116;11.612;2024-03-23T14:52:37;7.10;99.90
50162;DHT22;36061;48.116;11.612;2024-03-23T14:55:05;7.20;99.90
50162;DHT22;36061;48.116;11.612;2024-03-23T14:57:34;7.20;99.90
50162;DHT22;36061;48.116;11.612;2024-03-23T15:00:01;7.20;99.90
50162;DHT22;36061;48.116;11.612;2024-03-23T15:02:31;7.20;99.90
50162;DHT22;36061;48.116;11.612;2024-03-23T15:04:58;7.30;99.90
50162;DHT22;36061;48.116;11.612;2024-03-23T15:07:27;7.20;99.90
50162;DHT22;36061;48.116;11.612;2024-03-23T15:09:55;7.20;99.90
50162;DHT22;36061;48.116;11.612;2024-03-23T15:12:22;7.00;99.90
50162;DHT22;36061;48.116;11.612;2024-03-23T15:14:48;6.70;99.90
50162;DHT22;36061;48.116;11.612;2024-03-23T15:17:16;6.60;99.90
50162;DHT22;36061;48.116;11.612;2024-03-23T15:19:45;6.40;99.90
50162;DHT22;36061;48.116;11.612;2024-03-23T15:22:18;6.30;99.90
50162;DHT22;36061;48.116;11.612;2024-03-23T15:24:47;6.20;99.90
50162;DHT22;36061;48.116;11.612;2024-03-23T15:27:16;6.10;99.90
50162;DHT22;36061;48.116;11.612;2024-03-23T15:29:43;6.00;99.90
50162;DHT22;36061;48.116;11.612;2024-03-23T15:32:12;6.00;99.90
50162;DHT22;36061;48.116;11.612;2024-03-23T15:34:40;5.90;99.90
50162;DHT22;36061;48.116;11.612;2024-03-23T15:37:08;5.90;99.90
50162;DHT22;36061;48.116;11.612;2024-03-23T15:39:34;6.00;99.90
50162;DHT22;36061;48.116;11.612;2024-03-23T15:42:03;6.10;99.90
50162;DHT22;36061;48.116;11.612;2024-03-23T15:44:30;6.30;99.90
50162;DHT22;36061;48.116;11.612;2024-03-23T15:46:58;6.40;99.90
50162;DHT22;36061;48.116;11.612;2024-03-23T15:49:25;6.60;99.90
50162;DHT22;36061;48.116;11.612;2024-03-23T15:51:52;6.60;99.90
50162;DHT22;36061;48.116;11.612;2024-03-23T15:54:19;6.70;99.90
50162;DHT22;36061;48.116;11.612;2024-03-23T15:56:48;6.70;99.90
50162;DHT22;36061;48.116;11.612;2024-03-23T15:59:17;6.80;99.90
50162;DHT22;36061;48.116;11.612;2024-03-23T16:01:44;6.90;99.90
50162;DHT22;36061;48.116;11.612;2024-03-23T16:04:11;6.90;99.90
50162;DHT22;36061;48.116;11.612;2024-03-23T16:06:39;6.90;99.90
50162;DHT22;36061;48.116;11.612;2024-03-23T16:09:07;6.80;99.90
50162;DHT22;36061;48.116;11.612;2024-03-23T16:11:35;6.70;99.90
50162;DHT22;36061;48.116;11.612;2024-03-23T16:14:01;6.70;99.90
50162;DHT22;36061;48.116;11.612;2024-03-23T16:16:30;6.60;99.90
50162;DHT22;36061;48.116;11.612;2024-03-23T16:18:57;6.60;99.90
50162;DHT22;36061;48.116;11.612;2024-03-23T16:21:25;6.50;99.90
50162;DHT22;36061;48.116;11.612;2024-03-23T16:23:51;6.50;99.90
50162;DHT22;36061;48.116;11.612;2024-03-23T16:26:19;6.60;99.90